createdAt,value
2023-02-14T00:01:26.126Z,-3.61
2023-02-14T00:04:32.804Z,-3.79
2023-02-14T00:07:39.061Z,-4.01
2023-02-14T00:10:45.566Z,-3.97
2023-02-14T00:14:05.922Z,-3.67
2023-02-14T00:17:13.404Z,-3.65
2023-02-14T00:20:20.279Z,-3.22
2023-02-14T00:23:26.330Z,-3.24
2023-02-14T00:26:32.503Z,-4.13
2023-02-14T00:29:38.562Z,-3.89
2023-02-14T00:32:46.044Z,-3.50
2023-02-14T00:35:52.382Z,-3.14
2023-02-14T00:38:58.854Z,-3.39
2023-02-14T00:42:05.358Z,-3.16
2023-02-14T00:45:11.752Z,-3.34
2023-02-14T00:48:19.634Z,-3.74
2023-02-14T00:51:26.062Z,-3.64
2023-02-14T00:54:32.734Z,-3.56
2023-02-14T00:57:39.365Z,-4.17
2023-02-14T01:00:45.713Z,-3.83
2023-02-14T01:03:53.198Z,-3.73
2023-02-14T01:06:59.593Z,-4.28
2023-02-14T01:10:07.011Z,-4.56
2023-02-14T01:13:14.360Z,-4.02
2023-02-14T01:16:22.688Z,-3.61
2023-02-14T01:19:30.203Z,-4.07
2023-02-14T01:22:37.693Z,-4.21
2023-02-14T01:25:44.225Z,-4.24
2023-02-14T01:28:51.368Z,-3.92
2023-02-14T01:31:57.858Z,-3.70
2023-02-14T01:35:05.711Z,-3.61
2023-02-14T01:38:12.084Z,-3.71
2023-02-14T01:41:18.853Z,-3.94
2023-02-14T01:44:57.631Z,-3.73
2023-02-14T01:48:03.979Z,-3.65
2023-02-14T01:51:11.423Z,-3.84
2023-02-14T01:54:19.276Z,-3.97
2023-02-14T01:57:28.111Z,-3.74
2023-02-14T02:00:52.039Z,-3.91
2023-02-14T02:04:02.638Z,-4.02
2023-02-14T02:07:13.673Z,-4.36
2023-02-14T02:10:20.365Z,-4.31
2023-02-14T02:13:27.170Z,-4.52
2023-02-14T02:16:59.696Z,-4.37
2023-02-14T02:20:44.730Z,-4.40
2023-02-14T02:24:13.452Z,-4.89
2023-02-14T02:27:31.615Z,-4.93
2023-02-14T02:31:07.543Z,-4.50
2023-02-14T02:34:45.925Z,-5.19
2023-02-14T02:38:04.818Z,-4.79
2023-02-14T02:41:18.399Z,-4.29
2023-02-14T02:44:32.324Z,-4.06
2023-02-14T02:47:43.726Z,-4.03
2023-02-14T02:51:12.526Z,-4.38
2023-02-14T02:54:29.377Z,-3.93
2023-02-14T02:57:41.338Z,-4.58
2023-02-14T03:00:50.061Z,-5.12
2023-02-14T03:04:18.975Z,-4.77
2023-02-14T03:07:36.663Z,-4.29
2023-02-14T03:10:44.675Z,-4.20
2023-02-14T03:14:05.075Z,-4.20
2023-02-14T03:17:22.349Z,-4.02
2023-02-14T03:20:39.859Z,-3.88
2023-02-14T03:23:55.685Z,-3.85
2023-02-14T03:27:08.151Z,-3.72
2023-02-14T03:30:26.154Z,-3.65
2023-02-14T03:33:38.305Z,-4.02
2023-02-14T03:36:51.759Z,-4.10
2023-02-14T03:40:04.574Z,-4.47
2023-02-14T03:43:15.248Z,-4.51
2023-02-14T03:46:25.746Z,-4.01
2023-02-14T03:49:36.982Z,-4.63
2023-02-14T03:52:44.805Z,-4.89
2023-02-14T03:55:56.376Z,-5.06
2023-02-14T03:59:10.663Z,-4.83
2023-02-14T04:02:21.434Z,-4.10
2023-02-14T04:05:29.119Z,-3.90
2023-02-14T04:08:35.414Z,-3.95
2023-02-14T04:11:42.154Z,-4.03
2023-02-14T04:14:49.883Z,-4.14
2023-02-14T04:18:13.534Z,-4.04
2023-02-14T04:21:19.932Z,-4.01
2023-02-14T04:24:26.264Z,-4.01
2023-02-14T04:27:32.703Z,-4.02
2023-02-14T04:30:40.395Z,-3.84
2023-02-14T04:33:48.197Z,-3.84
2023-02-14T04:36:54.917Z,-3.87
2023-02-14T04:40:01.252Z,-4.13
2023-02-14T04:43:08.325Z,-3.96
2023-02-14T04:46:16.097Z,-4.43
2023-02-14T04:49:22.861Z,-4.13
2023-02-14T04:52:28.997Z,-4.99
2023-02-14T04:55:34.989Z,-5.10
2023-02-14T04:58:41.180Z,-5.10
2023-02-14T05:01:48.981Z,-4.63
2023-02-14T05:04:55.146Z,-4.96
2023-02-14T05:08:01.091Z,-4.37
2023-02-14T05:11:07.421Z,-4.26
2023-02-14T05:14:13.959Z,-4.04
2023-02-14T05:17:21.468Z,-4.40
2023-02-14T05:20:27.741Z,-4.74
2023-02-14T05:23:33.780Z,-5.33
2023-02-14T05:26:41.114Z,-5.44
2023-02-14T05:29:47.484Z,-6.12
2023-02-14T05:32:55.344Z,-5.38
2023-02-14T05:36:02.790Z,-5.19
2023-02-14T05:39:09.409Z,-4.52
2023-02-14T05:42:15.348Z,-4.62
2023-02-14T05:45:21.965Z,-4.50
2023-02-14T05:48:29.465Z,-4.33
2023-02-14T05:51:35.801Z,-4.25
2023-02-14T05:54:41.949Z,-4.17
2023-02-14T05:57:48.557Z,-4.46
2023-02-14T06:00:54.649Z,-4.90
2023-02-14T06:04:01.925Z,-4.87
2023-02-14T06:07:08.223Z,-4.33
2023-02-14T06:10:14.421Z,-4.27
2023-02-14T06:13:20.827Z,-3.55
2023-02-14T06:16:27.033Z,-3.80
2023-02-14T06:19:34.706Z,-4.18
2023-02-14T06:22:41.046Z,-3.36
2023-02-14T06:25:47.235Z,-3.48
2023-02-14T06:28:54.644Z,-2.84
2023-02-14T06:32:05.959Z,-2.08
2023-02-14T06:35:13.873Z,-1.93
2023-02-14T06:38:19.936Z,-1.65
2023-02-14T06:41:26.165Z,-1.38
2023-02-14T06:44:32.306Z,-1.26
2023-02-14T06:47:38.385Z,-1.61
2023-02-14T06:50:48.411Z,-1.71
2023-02-14T06:53:54.687Z,-1.78
2023-02-14T06:57:00.668Z,-1.53
2023-02-14T07:00:08.213Z,-1.33
2023-02-14T07:03:14.529Z,-1.15
2023-02-14T07:06:22.412Z,-1.04
2023-02-14T07:09:28.745Z,-0.65
2023-02-14T07:12:35.042Z,-0.64
2023-02-14T07:15:41.170Z,-0.52
2023-02-14T07:18:47.376Z,-0.21
2023-02-14T07:21:54.708Z,-0.26
2023-02-14T07:25:00.982Z,-0.42
2023-02-14T07:28:07.092Z,0.07
2023-02-14T07:31:13.684Z,0.07
2023-02-14T07:34:19.969Z,0.69
2023-02-14T07:37:27.497Z,0.64
2023-02-14T07:40:33.489Z,1.20
2023-02-14T07:43:39.903Z,1.11
2023-02-14T07:46:45.788Z,1.13
2023-02-14T07:49:52.171Z,1.32
2023-02-14T07:52:59.706Z,1.04
2023-02-14T07:56:06.167Z,1.02
2023-02-14T07:59:12.468Z,1.36
2023-02-14T08:02:20.912Z,1.35
2023-02-14T08:05:27.217Z,1.38
2023-02-14T08:08:34.724Z,1.93
2023-02-14T08:11:58.246Z,2.05
2023-02-14T08:15:18.714Z,2.51
2023-02-14T08:18:28.895Z,2.47
2023-02-14T08:21:35.367Z,2.87
2023-02-14T08:24:45.143Z,2.61
2023-02-14T08:27:51.545Z,2.73
2023-02-14T08:30:58.291Z,2.84
2023-02-14T08:34:05.683Z,3.16
2023-02-14T08:37:11.783Z,2.89
2023-02-14T08:40:20.597Z,3.47
2023-02-14T08:43:26.874Z,2.87
2023-02-14T08:46:33.291Z,3.25
2023-02-14T08:49:39.424Z,3.42
2023-02-14T08:52:46.306Z,3.49
2023-02-14T08:55:53.763Z,3.23
2023-02-14T08:58:59.742Z,3.14
2023-02-14T09:02:05.823Z,3.04
2023-02-14T09:05:11.890Z,3.60
2023-02-14T09:08:18.090Z,3.50
2023-02-14T09:11:26.626Z,3.68
2023-02-14T09:14:36.715Z,3.60
2023-02-14T09:17:42.836Z,3.70
2023-02-14T09:20:49.002Z,3.76
2023-02-14T09:23:55.989Z,4.06
2023-02-14T09:27:03.793Z,3.61
2023-02-14T09:30:11.691Z,3.85
2023-02-14T09:33:17.721Z,4.16
2023-02-14T09:36:42.216Z,4.24
2023-02-14T09:39:48.649Z,4.28
2023-02-14T09:43:06.351Z,4.69
2023-02-14T09:46:16.826Z,4.03
2023-02-14T09:49:32.689Z,4.44
2023-02-14T09:52:39.096Z,4.60
2023-02-14T09:55:53.459Z,4.71
2023-02-14T09:59:07.209Z,4.75
2023-02-14T10:02:28.387Z,4.91
2023-02-14T10:05:42.309Z,5.08
2023-02-14T10:09:03.454Z,5.08
2023-02-14T10:12:24.408Z,4.61
2023-02-14T10:15:34.625Z,4.56
2023-02-14T10:18:47.491Z,5.07
2023-02-14T10:21:56.528Z,5.26
2023-02-14T10:25:08.002Z,5.44
2023-02-14T10:28:16.977Z,5.43
2023-02-14T10:31:26.791Z,5.75
2023-02-14T10:34:40.587Z,5.50
2023-02-14T10:37:59.246Z,5.30
2023-02-14T10:41:27.587Z,5.71
2023-02-14T10:44:46.829Z,5.55
2023-02-14T10:48:00.053Z,5.91
2023-02-14T10:51:16.646Z,5.67
2023-02-14T10:54:26.160Z,5.44
2023-02-14T10:57:37.155Z,5.96
2023-02-14T11:00:54.146Z,5.68
2023-02-14T11:04:06.705Z,6.50
2023-02-14T11:07:14.633Z,5.41
2023-02-14T11:10:29.873Z,4.99
2023-02-14T11:13:38.075Z,5.39
2023-02-14T11:16:44.153Z,5.49
2023-02-14T11:19:59.207Z,5.89
2023-02-14T11:23:20.311Z,5.10
2023-02-14T11:26:31.640Z,5.39
2023-02-14T11:29:45.732Z,5.09
2023-02-14T11:32:56.350Z,5.58
2023-02-14T11:36:06.406Z,5.42
2023-02-14T11:39:27.225Z,6.03
2023-02-14T11:42:37.088Z,5.30
2023-02-14T11:45:45.665Z,5.28
2023-02-14T11:48:58.745Z,5.42
2023-02-14T11:52:19.123Z,5.79
2023-02-14T11:55:28.239Z,5.67
2023-02-14T12:03:29.378Z,5.27
2023-02-14T12:06:37.794Z,5.38
2023-02-14T12:09:46.976Z,5.93
2023-02-14T12:12:57.108Z,5.40
2023-02-14T12:16:03.963Z,5.23
2023-02-14T12:19:17.453Z,5.57
2023-02-14T12:22:30.866Z,6.01
2023-02-14T12:25:44.186Z,5.63
2023-02-14T12:28:56.526Z,6.01
2023-02-14T12:32:07.352Z,5.75
2023-02-14T12:35:18.368Z,5.59
2023-02-14T12:38:34.967Z,5.95
2023-02-14T12:41:54.086Z,5.52
2023-02-14T12:45:11.042Z,5.81
2023-02-14T12:48:26.615Z,5.58
2023-02-14T12:51:37.150Z,5.35
2023-02-14T12:54:58.154Z,5.95
2023-02-14T12:58:22.847Z,6.18
2023-02-14T13:02:01.387Z,5.95
2023-02-14T13:05:20.579Z,5.60
2023-02-14T13:08:44.432Z,5.69
2023-02-14T13:12:02.542Z,5.57
2023-02-14T13:15:23.640Z,5.59
2023-02-14T13:18:45.235Z,5.81
2023-02-14T13:21:52.430Z,5.47
2023-02-14T13:25:03.845Z,5.25
2023-02-14T13:28:15.006Z,5.47
2023-02-14T13:31:23.623Z,5.48
2023-02-14T13:34:33.805Z,5.38
2023-02-14T13:37:40.417Z,5.67
2023-02-14T13:40:48.389Z,5.48
2023-02-14T13:43:57.514Z,5.67
2023-02-14T13:47:05.806Z,5.55
2023-02-14T13:50:22.481Z,5.42
2023-02-14T13:53:42.653Z,5.28
2023-02-14T13:56:49.085Z,4.94
2023-02-14T14:00:38.240Z,4.96
2023-02-14T14:04:04.861Z,5.52
2023-02-14T14:07:30.208Z,5.62
2023-02-14T14:10:45.996Z,5.31
2023-02-14T14:14:02.877Z,5.06
2023-02-14T14:17:26.302Z,4.89
2023-02-14T14:20:45.298Z,4.77
2023-02-14T14:24:08.621Z,4.36
2023-02-14T14:27:17.336Z,4.05
2023-02-14T14:30:29.421Z,3.81
2023-02-14T14:33:37.809Z,3.90
2023-02-14T14:36:45.300Z,3.81
2023-02-14T14:39:53.947Z,3.66
2023-02-14T14:43:13.398Z,3.52
2023-02-14T14:46:20.122Z,3.39
2023-02-14T14:49:27.696Z,3.41
2023-02-14T14:52:38.423Z,3.42
2023-02-14T14:55:52.029Z,3.35
2023-02-14T14:58:59.415Z,3.39
2023-02-14T15:02:21.998Z,3.18
2023-02-14T15:05:32.711Z,3.12
2023-02-14T15:08:40.258Z,3.07
2023-02-14T15:12:05.727Z,2.99
2023-02-14T15:15:13.430Z,2.75
2023-02-14T15:18:22.161Z,2.60
2023-02-14T15:21:29.609Z,2.33
2023-02-14T15:24:39.758Z,2.56
2023-02-14T15:27:46.377Z,2.58
2023-02-14T15:30:57.840Z,2.55
2023-02-14T15:34:05.521Z,2.44
2023-02-14T15:37:13.943Z,2.50
2023-02-14T15:40:25.190Z,2.33
2023-02-14T15:43:33.780Z,2.29
2023-02-14T15:46:42.136Z,2.29
2023-02-14T15:49:48.618Z,2.09
2023-02-14T15:52:56.993Z,2.21
2023-02-14T15:56:08.350Z,2.25
2023-02-14T15:59:19.678Z,2.11
2023-02-14T16:02:34.118Z,2.12
2023-02-14T16:05:47.037Z,2.07
2023-02-14T16:08:57.167Z,2.13
2023-02-14T16:12:24.641Z,2.09
2023-02-14T16:15:33.074Z,1.97
2023-02-14T16:18:40.737Z,1.91
2023-02-14T16:21:57.306Z,1.88
2023-02-14T16:25:03.599Z,1.96
2023-02-14T16:28:11.069Z,1.97
2023-02-14T16:31:18.118Z,1.84
2023-02-14T16:34:24.814Z,1.80
2023-02-14T16:37:33.731Z,1.86
2023-02-14T16:40:39.939Z,1.93
2023-02-14T16:43:48.825Z,1.65
2023-02-14T16:46:55.106Z,1.82
2023-02-14T16:50:01.014Z,1.71
2023-02-14T16:53:12.987Z,1.60
2023-02-14T16:56:25.065Z,1.77
2023-02-14T16:59:32.507Z,1.65
2023-02-14T17:02:39.336Z,1.69
2023-02-14T17:05:45.994Z,1.57
2023-02-14T17:08:54.346Z,1.55
2023-02-14T17:12:04.966Z,1.49
2023-02-14T17:15:17.079Z,1.56
2023-02-14T17:18:25.976Z,1.37
2023-02-14T17:21:32.207Z,1.32
2023-02-14T17:24:38.546Z,1.47
2023-02-14T17:27:46.388Z,1.40
2023-02-14T17:30:54.928Z,1.41
2023-02-14T17:34:01.145Z,1.38
2023-02-14T17:37:07.316Z,1.32
2023-02-14T17:40:14.805Z,1.47
2023-02-14T17:43:21.089Z,1.22
2023-02-14T17:46:30.069Z,1.28
2023-02-14T17:49:36.202Z,1.29
2023-02-14T17:52:43.176Z,1.16
2023-02-14T17:55:49.627Z,1.30
2023-02-14T17:58:56.617Z,1.02
2023-02-14T18:02:04.518Z,1.18
2023-02-14T18:05:12.400Z,1.20
2023-02-14T18:08:20.940Z,0.98
2023-02-14T18:11:29.303Z,1.11
2023-02-14T18:14:35.961Z,1.14
2023-02-14T18:17:43.864Z,1.23
2023-02-14T18:20:55.171Z,1.12
2023-02-14T18:24:01.416Z,1.16
2023-02-14T18:27:08.296Z,1.02
2023-02-14T18:30:15.565Z,1.14
2023-02-14T18:33:25.440Z,1.19
2023-02-14T18:36:32.973Z,0.92
2023-02-14T18:39:39.841Z,1.01
2023-02-14T18:42:46.643Z,0.86
2023-02-14T18:45:53.046Z,0.80
2023-02-14T18:49:00.869Z,0.69
2023-02-14T18:52:07.404Z,0.83
2023-02-14T18:55:14.200Z,0.79
2023-02-14T18:58:20.354Z,0.88
2023-02-14T19:01:29.544Z,0.82
2023-02-14T19:04:37.053Z,0.72
2023-02-14T19:07:45.024Z,0.79
2023-02-14T19:10:51.704Z,0.85
2023-02-14T19:13:59.810Z,0.91
2023-02-14T19:17:06.723Z,0.95
2023-02-14T19:20:16.488Z,0.75
2023-02-14T19:23:22.563Z,0.83
2023-02-14T19:26:32.894Z,0.79
2023-02-14T19:29:39.916Z,0.77
2023-02-14T19:32:46.195Z,0.84
2023-02-14T19:36:02.345Z,0.83
2023-02-14T19:39:08.958Z,0.78
2023-02-14T19:42:15.470Z,0.75
2023-02-14T19:45:22.731Z,0.75
2023-02-14T19:48:29.226Z,0.59
2023-02-14T19:51:37.849Z,0.31
2023-02-14T19:54:44.731Z,0.38
2023-02-14T19:57:51.162Z,0.37
2023-02-14T20:00:59.978Z,0.32
2023-02-14T20:04:10.127Z,0.44
2023-02-14T20:07:18.400Z,0.39
2023-02-14T20:10:24.722Z,0.39
2023-02-14T20:13:31.395Z,0.40
2023-02-14T20:16:38.904Z,0.20
2023-02-14T20:19:45.659Z,0.18
2023-02-14T20:22:53.645Z,0.13
2023-02-14T20:26:00.332Z,0.09
2023-02-14T20:29:07.452Z,0.00
2023-02-14T20:32:16.338Z,0.05
2023-02-14T20:35:23.185Z,0.23
2023-02-14T20:38:31.241Z,0.14
2023-02-14T20:41:38.122Z,0.16
2023-02-14T20:44:45.781Z,0.16
2023-02-14T20:47:52.052Z,0.21
2023-02-14T20:50:59.049Z,0.13
2023-02-14T20:54:07.127Z,-0.01
2023-02-14T20:57:13.776Z,-0.13
2023-02-14T21:00:25.702Z,-0.18
2023-02-14T21:03:32.520Z,-0.17
2023-02-14T21:06:40.139Z,-0.36
2023-02-14T21:09:47.931Z,-0.31
2023-02-14T21:12:54.568Z,-0.45
2023-02-14T21:16:03.417Z,-0.49
2023-02-14T21:19:10.228Z,-0.50
2023-02-14T21:22:17.109Z,-0.25
2023-02-14T21:25:26.721Z,-0.53
2023-02-14T21:28:33.277Z,-0.54
2023-02-14T21:31:40.538Z,-0.43
2023-02-14T21:34:47.162Z,-0.50
2023-02-14T21:37:53.488Z,-0.68
2023-02-14T21:41:05.985Z,-0.72
2023-02-14T21:44:32.404Z,-0.72
2023-02-14T21:47:39.933Z,-0.83
2023-02-14T21:50:45.367Z,-0.86
2023-02-14T21:53:52.727Z,-0.83
2023-02-14T21:57:00.728Z,-0.98
2023-02-14T22:00:08.483Z,-0.83
2023-02-14T22:03:15.212Z,-0.94
2023-02-14T22:06:22.229Z,-0.77
2023-02-14T22:09:28.579Z,-0.97
2023-02-14T22:12:36.345Z,-1.09
2023-02-14T22:15:42.796Z,-1.03
2023-02-14T22:18:49.451Z,-0.98
2023-02-14T22:21:56.105Z,-1.23
2023-02-14T22:25:02.780Z,-1.41
2023-02-14T22:28:11.202Z,-1.28
2023-02-14T22:31:19.353Z,-1.45
2023-02-14T22:34:26.029Z,-1.46
2023-02-14T22:37:32.710Z,-1.46
2023-02-14T22:40:39.186Z,-1.47
2023-02-14T22:43:47.905Z,-1.57
2023-02-14T22:46:54.295Z,-1.58
2023-02-14T22:50:01.492Z,-1.46
2023-02-14T22:53:08.366Z,-1.58
2023-02-14T22:56:17.139Z,-1.41
2023-02-14T22:59:27.441Z,-1.27
2023-02-14T23:02:34.235Z,-1.41
2023-02-14T23:05:40.813Z,-1.40
2023-02-14T23:08:48.900Z,-1.44
2023-02-14T23:11:55.399Z,-1.49
2023-02-14T23:15:20.572Z,-1.50
2023-02-14T23:18:44.517Z,-1.34
2023-02-14T23:21:57.217Z,-1.52
2023-02-14T23:25:04.824Z,-1.65
2023-02-14T23:28:11.174Z,-1.74
2023-02-14T23:31:18.888Z,-1.69
2023-02-14T23:34:27.040Z,-1.70
2023-02-14T23:37:33.637Z,-1.88
2023-02-14T23:40:53.727Z,-1.76
2023-02-14T23:44:00.271Z,-1.72
2023-02-14T23:47:10.258Z,-1.78
2023-02-14T23:50:16.366Z,-1.92
2023-02-14T23:53:23.138Z,-1.76
2023-02-14T23:56:29.526Z,-2.02
2023-02-14T23:59:36.315Z,-2.40
